sensor_id;sensor_type;location;lat;lon;timestamp;temperature;humidity
17421;DHT22;8828;48.800;9.540;2023-02-28T00:01:34;2.00;71.80
17421;DHT22;8828;48.800;9.540;2023-02-28T00:04:02;2.00;71.80
17421;DHT22;8828;48.800;9.540;2023-02-28T00:06:30;2.00;72.00
17421;DHT22;8828;48.800;9.540;2023-02-28T00:08:58;2.00;72.10
17421;DHT22;8828;48.800;9.540;2023-02-28T00:11:27;2.00;73.00
17421;DHT22;8828;48.800;9.540;2023-02-28T00:13:55;2.00;72.10
17421;DHT22;8828;48.800;9.540;2023-02-28T00:16:23;2.00;72.20
17421;DHT22;8828;48.800;9.540;2023-02-28T00:18:51;2.00;72.40
17421;DHT22;8828;48.800;9.540;2023-02-28T00:21:20;2.00;72.50
17421;DHT22;8828;48.800;9.540;2023-02-28T00:23:48;2.00;72.60
17421;DHT22;8828;48.800;9.540;2023-02-28T00:26:16;2.00;72.60
17421;DHT22;8828;48.800;9.540;2023-02-28T00:28:48;2.00;72.70
17421;DHT22;8828;48.800;9.540;2023-02-28T00:31:17;2.00;72.90
17421;DHT22;8828;48.800;9.540;2023-02-28T00:33:44;2.00;72.90
17421;DHT22;8828;48.800;9.540;2023-02-28T00:36:12;2.00;73.00
17421;DHT22;8828;48.800;9.540;2023-02-28T00:38:41;2.00;73.10
17421;DHT22;8828;48.800;9.540;2023-02-28T00:41:09;2.00;73.10
17421;DHT22;8828;48.800;9.540;2023-02-28T00:43:38;2.00;73.40
17421;DHT22;8828;48.800;9.540;2023-02-28T00:46:08;2.00;73.60
17421;DHT22;8828;48.800;9.540;2023-02-28T00:48:36;2.00;73.70
17421;DHT22;8828;48.800;9.540;2023-02-28T00:51:05;1.90;73.60
17421;DHT22;8828;48.800;9.540;2023-02-28T00:53:33;2.00;74.00
17421;DHT22;8828;48.800;9.540;2023-02-28T00:56:01;2.00;73.90
17421;DHT22;8828;48.800;9.540;2023-02-28T00:58:29;2.00;74.50
17421;DHT22;8828;48.800;9.540;2023-02-28T01:00:57;2.00;74.40
17421;DHT22;8828;48.800;9.540;2023-02-28T01:03:26;2.00;74.30
17421;DHT22;8828;48.800;9.540;2023-02-28T01:05:54;2.00;74.40
17421;DHT22;8828;48.800;9.540;2023-02-28T01:08:22;2.00;74.90
17421;DHT22;8828;48.800;9.540;2023-02-28T01:10:50;2.10;75.00
17421;DHT22;8828;48.800;9.540;2023-02-28T01:13:19;2.00;75.10
17421;DHT22;8828;48.800;9.540;2023-02-28T01:15:50;2.00;75.20
17421;DHT22;8828;48.800;9.540;2023-02-28T01:18:19;2.00;75.60
17421;DHT22;8828;48.800;9.540;2023-02-28T01:20:49;2.00;76.10
17421;DHT22;8828;48.800;9.540;2023-02-28T01:23:18;2.00;76.00
17421;DHT22;8828;48.800;9.540;2023-02-28T01:25:47;1.90;76.80
17421;DHT22;8828;48.800;9.540;2023-02-28T01:28:15;1.90;76.30
17421;DHT22;8828;48.800;9.540;2023-02-28T01:30:42;1.90;76.40
17421;DHT22;8828;48.800;9.540;2023-02-28T01:33:10;2.00;76.60
17421;DHT22;8828;48.800;9.540;2023-02-28T01:35:38;2.00;76.80
17421;DHT22;8828;48.800;9.540;2023-02-28T01:38:08;2.00;76.90
17421;DHT22;8828;48.800;9.540;2023-02-28T01:40:48;2.00;77.00
17421;DHT22;8828;48.800;9.540;2023-02-28T01:43:21;2.00;77.10
17421;DHT22;8828;48.800;9.540;2023-02-28T01:45:50;2.00;77.40
17421;DHT22;8828;48.800;9.540;2023-02-28T01:48:19;2.00;78.00
17421;DHT22;8828;48.800;9.540;2023-02-28T01:50:48;2.00;78.10
17421;DHT22;8828;48.800;9.540;2023-02-28T01:53:21;1.90;78.00
17421;DHT22;8828;48.800;9.540;2023-02-28T01:55:53;1.90;78.30
17421;DHT22;8828;48.800;9.540;2023-02-28T01:58:21;1.90;78.30
17421;DHT22;8828;48.800;9.540;2023-02-28T02:00:49;1.90;78.80
17421;DHT22;8828;48.800;9.540;2023-02-28T02:03:18;1.90;78.60
17421;DHT22;8828;48.800;9.540;2023-02-28T02:05:47;1.90;78.80
17421;DHT22;8828;48.800;9.540;2023-02-28T02:08:19;1.90;79.00
17421;DHT22;8828;48.800;9.540;2023-02-28T02:10:49;1.90;79.20
17421;DHT22;8828;48.800;9.540;2023-02-28T02:13:29;1.90;79.50
17421;DHT22;8828;48.800;9.540;2023-02-28T02:16:11;1.90;79.80
17421;DHT22;8828;48.800;9.540;2023-02-28T02:18:44;1.80;80.00
17421;DHT22;8828;48.800;9.540;2023-02-28T02:24:33;1.80;80.50
17421;DHT22;8828;48.800;9.540;2023-02-28T02:27:25;1.80;80.90
17421;DHT22;8828;48.800;9.540;2023-02-28T02:30:15;1.80;81.00
17421;DHT22;8828;48.800;9.540;2023-02-28T02:33:21;1.80;81.10
17421;DHT22;8828;48.800;9.540;2023-02-28T02:35:55;1.80;81.10
17421;DHT22;8828;48.800;9.540;2023-02-28T02:38:32;1.80;81.90
17421;DHT22;8828;48.800;9.540;2023-02-28T02:41:08;1.80;82.10
17421;DHT22;8828;48.800;9.540;2023-02-28T02:43:43;1.80;82.10
17421;DHT22;8828;48.800;9.540;2023-02-28T02:46:15;1.70;82.30
17421;DHT22;8828;48.800;9.540;2023-02-28T02:48:44;1.70;82.60
17421;DHT22;8828;48.800;9.540;2023-02-28T02:51:17;1.70;82.80
17421;DHT22;8828;48.800;9.540;2023-02-28T02:53:51;1.70;83.00
17421;DHT22;8828;48.800;9.540;2023-02-28T02:56:24;1.70;83.00
17421;DHT22;8828;48.800;9.540;2023-02-28T02:58:56;1.70;83.20
17421;DHT22;8828;48.800;9.540;2023-02-28T03:01:26;1.70;83.60
17421;DHT22;8828;48.800;9.540;2023-02-28T03:03:58;1.70;83.70
17421;DHT22;8828;48.800;9.540;2023-02-28T03:06:28;1.70;83.90
17421;DHT22;8828;48.800;9.540;2023-02-28T03:08:56;1.70;84.10
17421;DHT22;8828;48.800;9.540;2023-02-28T03:11:24;1.70;84.30
17421;DHT22;8828;48.800;9.540;2023-02-28T03:14:10;1.70;84.70
17421;DHT22;8828;48.800;9.540;2023-02-28T03:16:53;1.70;84.60
17421;DHT22;8828;48.800;9.540;2023-02-28T03:19:36;1.70;84.80
17421;DHT22;8828;48.800;9.540;2023-02-28T03:22:18;1.70;84.90
17421;DHT22;8828;48.800;9.540;2023-02-28T03:24:53;1.70;85.40
17421;DHT22;8828;48.800;9.540;2023-02-28T03:27:24;1.70;86.50
17421;DHT22;8828;48.800;9.540;2023-02-28T03:30:00;1.70;85.90
17421;DHT22;8828;48.800;9.540;2023-02-28T03:32:33;1.70;86.10
17421;DHT22;8828;48.800;9.540;2023-02-28T03:35:07;1.80;86.00
17421;DHT22;8828;48.800;9.540;2023-02-28T03:37:41;1.80;86.40
17421;DHT22;8828;48.800;9.540;2023-02-28T03:40:12;1.80;86.40
17421;DHT22;8828;48.800;9.540;2023-02-28T03:42:44;1.80;86.40
17421;DHT22;8828;48.800;9.540;2023-02-28T03:45:15;1.80;86.80
17421;DHT22;8828;48.800;9.540;2023-02-28T03:47:48;1.80;87.20
17421;DHT22;8828;48.800;9.540;2023-02-28T03:50:21;1.80;87.10
17421;DHT22;8828;48.800;9.540;2023-02-28T03:52:55;1.80;87.60
17421;DHT22;8828;48.800;9.540;2023-02-28T03:55:32;1.80;87.50
17421;DHT22;8828;48.800;9.540;2023-02-28T03:58:04;1.80;87.70
17421;DHT22;8828;48.800;9.540;2023-02-28T04:00:35;1.80;88.00
17421;DHT22;8828;48.800;9.540;2023-02-28T04:03:05;1.80;88.40
17421;DHT22;8828;48.800;9.540;2023-02-28T04:05:49;1.80;88.40
17421;DHT22;8828;48.800;9.540;2023-02-28T04:08:19;1.80;88.50
17421;DHT22;8828;48.800;9.540;2023-02-28T04:10:51;1.90;89.30
17421;DHT22;8828;48.800;9.540;2023-02-28T04:13:20;1.90;89.00
17421;DHT22;8828;48.800;9.540;2023-02-28T04:15:49;1.90;89.10
17421;DHT22;8828;48.800;9.540;2023-02-28T04:18:17;1.90;89.40
17421;DHT22;8828;48.800;9.540;2023-02-28T04:20:45;1.90;89.50
17421;DHT22;8828;48.800;9.540;2023-02-28T04:23:13;1.90;89.70
17421;DHT22;8828;48.800;9.540;2023-02-28T04:25:42;1.90;90.00
17421;DHT22;8828;48.800;9.540;2023-02-28T04:28:10;2.00;90.10
17421;DHT22;8828;48.800;9.540;2023-02-28T04:30:38;2.00;90.10
17421;DHT22;8828;48.800;9.540;2023-02-28T04:33:06;2.00;90.20
17421;DHT22;8828;48.800;9.540;2023-02-28T04:35:34;2.00;90.20
17421;DHT22;8828;48.800;9.540;2023-02-28T04:38:02;2.00;90.20
17421;DHT22;8828;48.800;9.540;2023-02-28T04:40:30;2.00;90.20
17421;DHT22;8828;48.800;9.540;2023-02-28T04:42:59;2.00;90.30
17421;DHT22;8828;48.800;9.540;2023-02-28T04:45:27;2.00;90.50
17421;DHT22;8828;48.800;9.540;2023-02-28T04:47:56;2.00;90.40
17421;DHT22;8828;48.800;9.540;2023-02-28T04:50:24;2.10;90.50
17421;DHT22;8828;48.800;9.540;2023-02-28T04:52:52;2.10;90.60
17421;DHT22;8828;48.800;9.540;2023-02-28T04:55:21;2.10;90.70
17421;DHT22;8828;48.800;9.540;2023-02-28T04:57:49;2.10;90.60
17421;DHT22;8828;48.800;9.540;2023-02-28T05:00:19;2.10;90.70
17421;DHT22;8828;48.800;9.540;2023-02-28T05:02:47;2.00;90.70
17421;DHT22;8828;48.800;9.540;2023-02-28T05:05:14;2.00;90.70
17421;DHT22;8828;48.800;9.540;2023-02-28T05:07:44;2.00;90.80
17421;DHT22;8828;48.800;9.540;2023-02-28T05:10:12;2.10;90.90
17421;DHT22;8828;48.800;9.540;2023-02-28T05:12:40;2.00;90.90
17421;DHT22;8828;48.800;9.540;2023-02-28T05:15:12;2.10;91.00
17421;DHT22;8828;48.800;9.540;2023-02-28T05:17:42;2.00;91.30
17421;DHT22;8828;48.800;9.540;2023-02-28T05:20:11;2.00;91.00
17421;DHT22;8828;48.800;9.540;2023-02-28T05:22:42;2.00;91.10
17421;DHT22;8828;48.800;9.540;2023-02-28T05:25:13;2.10;91.10
17421;DHT22;8828;48.800;9.540;2023-02-28T05:27:41;2.10;91.20
17421;DHT22;8828;48.800;9.540;2023-02-28T05:30:10;2.10;91.20
17421;DHT22;8828;48.800;9.540;2023-02-28T05:32:39;2.10;91.30
17421;DHT22;8828;48.800;9.540;2023-02-28T05:35:11;2.00;91.30
17421;DHT22;8828;48.800;9.540;2023-02-28T05:37:39;2.10;91.30
17421;DHT22;8828;48.800;9.540;2023-02-28T05:40:08;2.10;91.40
17421;DHT22;8828;48.800;9.540;2023-02-28T05:42:38;2.00;91.40
17421;DHT22;8828;48.800;9.540;2023-02-28T05:45:06;2.10;91.60
17421;DHT22;8828;48.800;9.540;2023-02-28T05:47:35;2.00;91.50
17421;DHT22;8828;48.800;9.540;2023-02-28T05:50:04;2.10;91.70
17421;DHT22;8828;48.800;9.540;2023-02-28T05:52:33;2.10;91.70
17421;DHT22;8828;48.800;9.540;2023-02-28T05:55:01;2.10;91.60
17421;DHT22;8828;48.800;9.540;2023-02-28T05:57:29;2.10;91.70
17421;DHT22;8828;48.800;9.540;2023-02-28T05:59:57;2.10;92.10
17421;DHT22;8828;48.800;9.540;2023-02-28T06:02:25;2.10;91.80
17421;DHT22;8828;48.800;9.540;2023-02-28T06:04:53;2.00;91.70
17421;DHT22;8828;48.800;9.540;2023-02-28T06:07:21;2.00;91.80
17421;DHT22;8828;48.800;9.540;2023-02-28T06:09:51;2.00;91.90
17421;DHT22;8828;48.800;9.540;2023-02-28T06:12:19;2.00;91.90
17421;DHT22;8828;48.800;9.540;2023-02-28T06:14:47;2.00;92.00
17421;DHT22;8828;48.800;9.540;2023-02-28T06:17:14;2.00;92.10
17421;DHT22;8828;48.800;9.540;2023-02-28T06:19:42;2.00;92.20
17421;DHT22;8828;48.800;9.540;2023-02-28T06:22:10;2.00;92.30
17421;DHT22;8828;48.800;9.540;2023-02-28T06:24:38;2.00;92.30
17421;DHT22;8828;48.800;9.540;2023-02-28T06:27:07;2.10;92.20
17421;DHT22;8828;48.800;9.540;2023-02-28T06:29:36;2.10;92.20
17421;DHT22;8828;48.800;9.540;2023-02-28T06:32:06;2.00;92.30
17421;DHT22;8828;48.800;9.540;2023-02-28T06:34:34;2.10;92.30
17421;DHT22;8828;48.800;9.540;2023-02-28T06:37:03;2.10;92.50
17421;DHT22;8828;48.800;9.540;2023-02-28T06:39:31;2.10;92.40
17421;DHT22;8828;48.800;9.540;2023-02-28T06:41:59;2.10;92.40
17421;DHT22;8828;48.800;9.540;2023-02-28T06:44:29;2.10;92.40
17421;DHT22;8828;48.800;9.540;2023-02-28T06:47:02;2.10;92.50
17421;DHT22;8828;48.800;9.540;2023-02-28T06:49:31;2.10;92.50
17421;DHT22;8828;48.800;9.540;2023-02-28T06:51:59;2.10;92.40
17421;DHT22;8828;48.800;9.540;2023-02-28T06:54:27;2.10;92.40
17421;DHT22;8828;48.800;9.540;2023-02-28T06:56:57;2.10;92.60
17421;DHT22;8828;48.800;9.540;2023-02-28T06:59:25;2.10;92.70
17421;DHT22;8828;48.800;9.540;2023-02-28T07:01:54;2.10;92.70
17421;DHT22;8828;48.800;9.540;2023-02-28T07:04:22;2.20;92.60
17421;DHT22;8828;48.800;9.540;2023-02-28T07:06:51;2.20;92.80
17421;DHT22;8828;48.800;9.540;2023-02-28T07:09:18;2.20;92.70
17421;DHT22;8828;48.800;9.540;2023-02-28T07:11:46;2.20;92.70
17421;DHT22;8828;48.800;9.540;2023-02-28T07:14:14;2.20;92.80
17421;DHT22;8828;48.800;9.540;2023-02-28T07:16:42;2.20;92.70
17421;DHT22;8828;48.800;9.540;2023-02-28T07:19:13;2.30;92.60
17421;DHT22;8828;48.800;9.540;2023-02-28T07:21:41;2.20;92.60
17421;DHT22;8828;48.800;9.540;2023-02-28T07:24:09;2.30;92.60
17421;DHT22;8828;48.800;9.540;2023-02-28T07:26:37;2.30;92.70
17421;DHT22;8828;48.800;9.540;2023-02-28T07:29:04;2.30;92.70
17421;DHT22;8828;48.800;9.540;2023-02-28T07:31:32;2.30;92.70
17421;DHT22;8828;48.800;9.540;2023-02-28T07:34:00;2.30;92.70
17421;DHT22;8828;48.800;9.540;2023-02-28T07:36:30;2.30;92.90
17421;DHT22;8828;48.800;9.540;2023-02-28T07:38:59;2.40;93.00
17421;DHT22;8828;48.800;9.540;2023-02-28T07:41:27;2.40;92.90
17421;DHT22;8828;48.800;9.540;2023-02-28T07:43:56;2.40;92.90
17421;DHT22;8828;48.800;9.540;2023-02-28T07:46:26;2.30;92.80
17421;DHT22;8828;48.800;9.540;2023-02-28T07:48:56;2.30;92.80
17421;DHT22;8828;48.800;9.540;2023-02-28T07:51:26;2.30;92.90
17421;DHT22;8828;48.800;9.540;2023-02-28T07:53:55;2.30;92.90
17421;DHT22;8828;48.800;9.540;2023-02-28T07:56:23;2.30;92.90
17421;DHT22;8828;48.800;9.540;2023-02-28T07:58:51;2.30;92.90
17421;DHT22;8828;48.800;9.540;2023-02-28T08:01:19;2.30;93.10
17421;DHT22;8828;48.800;9.540;2023-02-28T08:03:48;2.40;92.90
17421;DHT22;8828;48.800;9.540;2023-02-28T08:06:18;2.40;93.00
17421;DHT22;8828;48.800;9.540;2023-02-28T08:08:46;2.50;93.00
17421;DHT22;8828;48.800;9.540;2023-02-28T08:11:15;2.50;92.80
17421;DHT22;8828;48.800;9.540;2023-02-28T08:13:44;2.50;92.90
17421;DHT22;8828;48.800;9.540;2023-02-28T08:16:14;2.60;93.00
17421;DHT22;8828;48.800;9.540;2023-02-28T08:18:48;2.60;92.80
17421;DHT22;8828;48.800;9.540;2023-02-28T08:21:17;2.70;92.90
17421;DHT22;8828;48.800;9.540;2023-02-28T08:23:46;2.70;92.80
17421;DHT22;8828;48.800;9.540;2023-02-28T08:26:16;2.80;92.70
17421;DHT22;8828;48.800;9.540;2023-02-28T08:28:45;2.80;92.60
17421;DHT22;8828;48.800;9.540;2023-02-28T08:31:15;2.80;92.50
17421;DHT22;8828;48.800;9.540;2023-02-28T08:33:43;2.80;92.40
17421;DHT22;8828;48.800;9.540;2023-02-28T08:36:12;2.90;92.30
17421;DHT22;8828;48.800;9.540;2023-02-28T08:38:40;2.90;92.40
17421;DHT22;8828;48.800;9.540;2023-02-28T08:41:11;2.90;92.40
17421;DHT22;8828;48.800;9.540;2023-02-28T08:43:41;3.00;92.50
17421;DHT22;8828;48.800;9.540;2023-02-28T08:46:11;3.00;92.30
17421;DHT22;8828;48.800;9.540;2023-02-28T08:48:40;3.00;92.40
17421;DHT22;8828;48.800;9.540;2023-02-28T08:51:10;3.00;92.40
17421;DHT22;8828;48.800;9.540;2023-02-28T08:53:39;3.10;92.50
17421;DHT22;8828;48.800;9.540;2023-02-28T08:56:09;3.20;92.40
17421;DHT22;8828;48.800;9.540;2023-02-28T08:58:39;3.30;92.40
17421;DHT22;8828;48.800;9.540;2023-02-28T09:01:09;3.40;92.00
17421;DHT22;8828;48.800;9.540;2023-02-28T09:03:39;3.50;91.80
17421;DHT22;8828;48.800;9.540;2023-02-28T09:06:08;3.60;91.70
17421;DHT22;8828;48.800;9.540;2023-02-28T09:08:36;3.70;91.50
17421;DHT22;8828;48.800;9.540;2023-02-28T09:11:05;3.80;91.20
17421;DHT22;8828;48.800;9.540;2023-02-28T09:13:33;3.90;91.10
17421;DHT22;8828;48.800;9.540;2023-02-28T09:16:04;4.00;90.90
17421;DHT22;8828;48.800;9.540;2023-02-28T09:18:33;4.20;90.80
17421;DHT22;8828;48.800;9.540;2023-02-28T09:21:03;4.30;90.50
17421;DHT22;8828;48.800;9.540;2023-02-28T09:23:31;4.40;90.10
17421;DHT22;8828;48.800;9.540;2023-02-28T09:25:59;4.40;89.10
17421;DHT22;8828;48.800;9.540;2023-02-28T09:28:27;4.50;89.50
17421;DHT22;8828;48.800;9.540;2023-02-28T09:30:55;4.50;89.40
17421;DHT22;8828;48.800;9.540;2023-02-28T09:33:26;4.50;89.50
17421;DHT22;8828;48.800;9.540;2023-02-28T09:35:59;4.50;88.90
17421;DHT22;8828;48.800;9.540;2023-02-28T09:38:28;4.60;89.10
17421;DHT22;8828;48.800;9.540;2023-02-28T09:40:58;4.60;87.90
17421;DHT22;8828;48.800;9.540;2023-02-28T09:43:29;4.60;87.80
17421;DHT22;8828;48.800;9.540;2023-02-28T09:46:05;4.70;87.50
17421;DHT22;8828;48.800;9.540;2023-02-28T09:48:39;4.70;87.40
17421;DHT22;8828;48.800;9.540;2023-02-28T09:51:15;4.80;86.70
17421;DHT22;8828;48.800;9.540;2023-02-28T09:53:50;5.00;87.80
17421;DHT22;8828;48.800;9.540;2023-02-28T09:56:32;5.20;86.80
17421;DHT22;8828;48.800;9.540;2023-02-28T09:59:05;5.50;85.60
17421;DHT22;8828;48.800;9.540;2023-02-28T10:01:39;6.10;86.20
17421;DHT22;8828;48.800;9.540;2023-02-28T10:04:14;7.10;84.00
17421;DHT22;8828;48.800;9.540;2023-02-28T10:06:46;7.70;81.20
17421;DHT22;8828;48.800;9.540;2023-02-28T10:09:18;8.00;78.50
17421;DHT22;8828;48.800;9.540;2023-02-28T10:11:48;8.00;76.90
17421;DHT22;8828;48.800;9.540;2023-02-28T10:14:23;7.90;76.80
17421;DHT22;8828;48.800;9.540;2023-02-28T10:16:54;7.80;76.70
17421;DHT22;8828;48.800;9.540;2023-02-28T10:19:30;7.70;76.50
17421;DHT22;8828;48.800;9.540;2023-02-28T10:22:02;7.50;76.50
17421;DHT22;8828;48.800;9.540;2023-02-28T10:24:35;7.20;76.60
17421;DHT22;8828;48.800;9.540;2023-02-28T10:27:13;7.00;77.00
17421;DHT22;8828;48.800;9.540;2023-02-28T10:29:44;6.80;77.50
17421;DHT22;8828;48.800;9.540;2023-02-28T10:32:15;6.80;78.30
17421;DHT22;8828;48.800;9.540;2023-02-28T10:34:51;7.00;78.20
17421;DHT22;8828;48.800;9.540;2023-02-28T10:37:20;7.60;77.60
17421;DHT22;8828;48.800;9.540;2023-02-28T10:39:48;8.00;76.00
17421;DHT22;8828;48.800;9.540;2023-02-28T10:42:23;9.00;74.50
17421;DHT22;8828;48.800;9.540;2023-02-28T10:45:09;11.30;69.30
17421;DHT22;8828;48.800;9.540;2023-02-28T10:47:49;14.00;63.00
17421;DHT22;8828;48.800;9.540;2023-02-28T10:50:35;15.80;57.30
17421;DHT22;8828;48.800;9.540;2023-02-28T10:53:23;17.30;53.20
17421;DHT22;8828;48.800;9.540;2023-02-28T10:56:00;18.50;51.20
17421;DHT22;8828;48.800;9.540;2023-02-28T10:58:30;20.40;48.00
17421;DHT22;8828;48.800;9.540;2023-02-28T11:00:59;21.00;45.60
17421;DHT22;8828;48.800;9.540;2023-02-28T11:03:32;21.50;44.10
17421;DHT22;8828;48.800;9.540;2023-02-28T11:06:08;22.40;42.80
17421;DHT22;8828;48.800;9.540;2023-02-28T11:08:45;22.80;41.20
17421;DHT22;8828;48.800;9.540;2023-02-28T11:11:14;23.60;39.90
17421;DHT22;8828;48.800;9.540;2023-02-28T11:13:44;24.10;39.10
17421;DHT22;8828;48.800;9.540;2023-02-28T11:16:14;23.80;38.40
17421;DHT22;8828;48.800;9.540;2023-02-28T11:18:48;23.00;38.40
17421;DHT22;8828;48.800;9.540;2023-02-28T11:21:21;22.50;38.50
17421;DHT22;8828;48.800;9.540;2023-02-28T11:23:52;22.30;38.80
17421;DHT22;8828;48.800;9.540;2023-02-28T11:26:36;22.70;38.40
17421;DHT22;8828;48.800;9.540;2023-02-28T11:29:19;23.30;37.70
17421;DHT22;8828;48.800;9.540;2023-02-28T11:32:15;23.90;37.40
17421;DHT22;8828;48.800;9.540;2023-02-28T11:34:44;24.20;36.40
17421;DHT22;8828;48.800;9.540;2023-02-28T11:37:16;24.50;36.30
17421;DHT22;8828;48.800;9.540;2023-02-28T11:39:46;25.20;35.50
17421;DHT22;8828;48.800;9.540;2023-02-28T11:42:23;25.50;34.90
17421;DHT22;8828;48.800;9.540;2023-02-28T11:47:48;25.00;35.30
17421;DHT22;8828;48.800;9.540;2023-02-28T11:50:32;25.30;34.60
17421;DHT22;8828;48.800;9.540;2023-02-28T11:53:12;25.30;34.30
17421;DHT22;8828;48.800;9.540;2023-02-28T11:55:45;25.10;34.60
17421;DHT22;8828;48.800;9.540;2023-02-28T11:58:37;24.20;34.40
17421;DHT22;8828;48.800;9.540;2023-02-28T12:01:43;23.20;35.60
17421;DHT22;8828;48.800;9.540;2023-02-28T12:04:23;22.50;36.20
17421;DHT22;8828;48.800;9.540;2023-02-28T12:06:57;22.20;36.60
17421;DHT22;8828;48.800;9.540;2023-02-28T12:09:51;21.70;36.90
17421;DHT22;8828;48.800;9.540;2023-02-28T12:12:31;21.80;36.40
17421;DHT22;8828;48.800;9.540;2023-02-28T12:15:28;22.00;36.70
17421;DHT22;8828;48.800;9.540;2023-02-28T12:18:10;22.20;36.50
17421;DHT22;8828;48.800;9.540;2023-02-28T12:20:49;22.40;36.70
17421;DHT22;8828;48.800;9.540;2023-02-28T12:23:33;22.50;36.30
17421;DHT22;8828;48.800;9.540;2023-02-28T12:26:13;22.70;36.00
17421;DHT22;8828;48.800;9.540;2023-02-28T12:28:44;22.70;35.80
17421;DHT22;8828;48.800;9.540;2023-02-28T12:31:18;22.70;35.90
17421;DHT22;8828;48.800;9.540;2023-02-28T12:33:56;23.00;35.60
17421;DHT22;8828;48.800;9.540;2023-02-28T12:36:27;23.50;35.40
17421;DHT22;8828;48.800;9.540;2023-02-28T12:38:59;24.20;34.70
17421;DHT22;8828;48.800;9.540;2023-02-28T12:41:37;24.70;34.30
17421;DHT22;8828;48.800;9.540;2023-02-28T12:44:11;25.00;33.60
17421;DHT22;8828;48.800;9.540;2023-02-28T12:46:43;24.70;33.80
17421;DHT22;8828;48.800;9.540;2023-02-28T12:49:15;24.60;34.30
17421;DHT22;8828;48.800;9.540;2023-02-28T12:51:46;24.30;34.40
17421;DHT22;8828;48.800;9.540;2023-02-28T12:54:21;23.70;34.50
17421;DHT22;8828;48.800;9.540;2023-02-28T12:57:01;23.30;34.90
17421;DHT22;8828;48.800;9.540;2023-02-28T12:59:35;22.90;35.40
17421;DHT22;8828;48.800;9.540;2023-02-28T13:08:23;22.80;35.50
17421;DHT22;8828;48.800;9.540;2023-02-28T13:10:55;23.10;35.30
17421;DHT22;8828;48.800;9.540;2023-02-28T13:13:25;23.20;34.90
17421;DHT22;8828;48.800;9.540;2023-02-28T13:16:04;23.10;34.90
17421;DHT22;8828;48.800;9.540;2023-02-28T13:18:35;23.10;35.10
17421;DHT22;8828;48.800;9.540;2023-02-28T13:21:07;23.00;35.30
17421;DHT22;8828;48.800;9.540;2023-02-28T13:23:56;23.00;35.10
17421;DHT22;8828;48.800;9.540;2023-02-28T13:29:32;23.00;35.60
17421;DHT22;8828;48.800;9.540;2023-02-28T13:35:45;22.50;35.70
17421;DHT22;8828;48.800;9.540;2023-02-28T13:38:38;22.20;36.00
17421;DHT22;8828;48.800;9.540;2023-02-28T13:41:45;21.80;36.10
17421;DHT22;8828;48.800;9.540;2023-02-28T13:44:15;21.20;36.80
17421;DHT22;8828;48.800;9.540;2023-02-28T13:50:16;20.50;37.50
17421;DHT22;8828;48.800;9.540;2023-02-28T13:52:54;20.30;38.00
17421;DHT22;8828;48.800;9.540;2023-02-28T13:55:27;20.00;38.20
17421;DHT22;8828;48.800;9.540;2023-02-28T13:58:07;19.80;38.40
17421;DHT22;8828;48.800;9.540;2023-02-28T14:00:57;19.80;38.70
17421;DHT22;8828;48.800;9.540;2023-02-28T14:03:48;19.60;39.00
17421;DHT22;8828;48.800;9.540;2023-02-28T14:06:25;19.70;38.90
17421;DHT22;8828;48.800;9.540;2023-02-28T14:08:58;19.50;39.40
17421;DHT22;8828;48.800;9.540;2023-02-28T14:11:32;19.20;39.10
17421;DHT22;8828;48.800;9.540;2023-02-28T14:14:00;19.00;39.30
17421;DHT22;8828;48.800;9.540;2023-02-28T14:16:37;18.70;40.10
17421;DHT22;8828;48.800;9.540;2023-02-28T14:19:12;18.70;40.50
17421;DHT22;8828;48.800;9.540;2023-02-28T14:21:53;18.50;40.20
17421;DHT22;8828;48.800;9.540;2023-02-28T14:24:59;18.40;40.60
17421;DHT22;8828;48.800;9.540;2023-02-28T14:27:40;18.20;40.80
17421;DHT22;8828;48.800;9.540;2023-02-28T14:33:39;18.20;40.90
17421;DHT22;8828;48.800;9.540;2023-02-28T14:36:14;17.70;40.90
17421;DHT22;8828;48.800;9.540;2023-02-28T14:38:48;17.40;41.10
17421;DHT22;8828;48.800;9.540;2023-02-28T14:41:22;16.90;41.80
17421;DHT22;8828;48.800;9.540;2023-02-28T14:43:52;16.30;42.50
17421;DHT22;8828;48.800;9.540;2023-02-28T14:46:21;15.70;43.80
17421;DHT22;8828;48.800;9.540;2023-02-28T14:48:50;15.20;44.30
17421;DHT22;8828;48.800;9.540;2023-02-28T14:51:20;14.70;45.40
17421;DHT22;8828;48.800;9.540;2023-02-28T14:53:52;14.30;45.80
17421;DHT22;8828;48.800;9.540;2023-02-28T14:56:26;13.90;46.60
17421;DHT22;8828;48.800;9.540;2023-02-28T14:58:56;13.50;46.70
17421;DHT22;8828;48.800;9.540;2023-02-28T15:01:25;13.10;47.60
17421;DHT22;8828;48.800;9.540;2023-02-28T15:04:02;12.70;48.20
17421;DHT22;8828;48.800;9.540;2023-02-28T15:06:30;12.50;48.70
17421;DHT22;8828;48.800;9.540;2023-02-28T15:09:13;12.10;48.70
17421;DHT22;8828;48.800;9.540;2023-02-28T15:11:45;11.90;49.40
17421;DHT22;8828;48.800;9.540;2023-02-28T15:14:19;11.70;50.30
17421;DHT22;8828;48.800;9.540;2023-02-28T15:16:51;11.60;50.20
17421;DHT22;8828;48.800;9.540;2023-02-28T15:19:22;11.40;50.80
17421;DHT22;8828;48.800;9.540;2023-02-28T15:21:53;11.30;51.30
17421;DHT22;8828;48.800;9.540;2023-02-28T15:24:30;11.10;51.70
17421;DHT22;8828;48.800;9.540;2023-02-28T15:27:02;11.00;51.90
17421;DHT22;8828;48.800;9.540;2023-02-28T15:29:34;10.80;52.10
17421;DHT22;8828;48.800;9.540;2023-02-28T15:32:29;10.70;53.00
17421;DHT22;8828;48.800;9.540;2023-02-28T15:34:58;10.50;52.60
17421;DHT22;8828;48.800;9.540;2023-02-28T15:37:38;10.40;53.00
17421;DHT22;8828;48.800;9.540;2023-02-28T15:40:15;10.20;53.00
17421;DHT22;8828;48.800;9.540;2023-02-28T15:42:58;10.10;53.40
17421;DHT22;8828;48.800;9.540;2023-02-28T15:45:28;10.00;53.70
17421;DHT22;8828;48.800;9.540;2023-02-28T15:47:57;9.90;54.10
17421;DHT22;8828;48.800;9.540;2023-02-28T15:50:39;9.70;53.80
17421;DHT22;8828;48.800;9.540;2023-02-28T15:53:13;9.50;54.30
17421;DHT22;8828;48.800;9.540;2023-02-28T15:55:42;9.40;54.50
17421;DHT22;8828;48.800;9.540;2023-02-28T15:58:12;9.30;54.70
17421;DHT22;8828;48.800;9.540;2023-02-28T16:00:43;9.20;55.30
17421;DHT22;8828;48.800;9.540;2023-02-28T16:03:27;9.10;55.40
17421;DHT22;8828;48.800;9.540;2023-02-28T16:06:30;9.00;55.70
17421;DHT22;8828;48.800;9.540;2023-02-28T16:08:59;8.90;56.20
17421;DHT22;8828;48.800;9.540;2023-02-28T16:11:29;8.70;56.20
17421;DHT22;8828;48.800;9.540;2023-02-28T16:13:58;8.60;56.60
17421;DHT22;8828;48.800;9.540;2023-02-28T16:16:26;8.50;56.60
17421;DHT22;8828;48.800;9.540;2023-02-28T16:18:54;8.40;56.80
17421;DHT22;8828;48.800;9.540;2023-02-28T16:21:23;8.30;57.20
17421;DHT22;8828;48.800;9.540;2023-02-28T16:23:52;8.20;57.30
17421;DHT22;8828;48.800;9.540;2023-02-28T16:26:23;8.20;57.40
17421;DHT22;8828;48.800;9.540;2023-02-28T16:28:55;8.10;57.60
17421;DHT22;8828;48.800;9.540;2023-02-28T16:31:23;8.00;58.00
17421;DHT22;8828;48.800;9.540;2023-02-28T16:33:51;7.90;58.10
17421;DHT22;8828;48.800;9.540;2023-02-28T16:36:21;7.90;58.30
17421;DHT22;8828;48.800;9.540;2023-02-28T16:38:51;7.80;58.30
17421;DHT22;8828;48.800;9.540;2023-02-28T16:41:21;7.70;58.50
17421;DHT22;8828;48.800;9.540;2023-02-28T16:43:51;7.70;58.80
17421;DHT22;8828;48.800;9.540;2023-02-28T16:46:21;7.60;59.00
17421;DHT22;8828;48.800;9.540;2023-02-28T16:48:49;7.50;59.00
17421;DHT22;8828;48.800;9.540;2023-02-28T16:51:18;7.50;59.40
17421;DHT22;8828;48.800;9.540;2023-02-28T16:53:46;7.40;59.80
17421;DHT22;8828;48.800;9.540;2023-02-28T16:56:17;7.40;59.80